Time;durP1;ratioP1;P1;durP2;ratioP2;P2;SDS_P1;SDS_P2;PMS_P1;PMS_P2;Temp;Humidity;BMP_temperature;BMP_pressure;BME280_temperature;BME280_humidity;BME280_pressure;Samples;Min_cycle;Max_cycle;Signal;HPM_P1;HPM_P2
2022/07/08 00:00:08;;;;;;;3.20;2.90;;;16.40;99.90;;;;;;5280476;28;20046;-59
2022/07/08 00:02:39;;;;;;;2.83;2.33;;;16.40;99.90;;;;;;5247614;28;20031;-59
2022/07/08 00:08:37;;;;;;;5.28;3.00;;;16.40;99.90;;;;;;5281379;28;20308;-59
2022/07/08 00:11:12;;;;;;;3.33;3.03;;;16.40;99.90;;;;;;5245877;28;20066;-59
2022/07/08 00:13:43;;;;;;;2.88;2.50;;;16.30;99.90;;;;;;5281362;28;20331;-58
2022/07/08 00:16:14;;;;;;;3.38;2.72;;;16.30;99.90;;;;;;5281009;28;20027;-58
2022/07/08 00:18:47;;;;;;;5.47;3.17;;;16.30;99.90;;;;;;5278738;28;20023;-58
2022/07/08 00:21:23;;;;;;;3.85;3.00;;;16.30;99.90;;;;;;5262404;28;20201;-58
2022/07/08 00:23:54;;;;;;;3.55;2.75;;;16.30;99.90;;;;;;5263242;28;20032;-60
2022/07/08 00:26:28;;;;;;;3.70;3.05;;;16.30;99.90;;;;;;5262041;28;20027;-59
2022/07/08 00:29:02;;;;;;;3.30;2.70;;;16.30;99.90;;;;;;5263244;28;20081;-60
2022/07/08 00:31:36;;;;;;;3.65;3.35;;;16.30;99.90;;;;;;5280092;28;20028;-59
2022/07/08 00:34:10;;;;;;;3.85;2.95;;;16.30;99.90;;;;;;5262676;28;20034;-59
2022/07/08 00:36:42;;;;;;;4.45;3.30;;;16.30;99.90;;;;;;5263318;28;20201;-60
2022/07/08 00:39:16;;;;;;;3.40;3.08;;;16.30;99.90;;;;;;5246085;28;20325;-59
2022/07/08 00:41:50;;;;;;;3.25;2.95;;;16.30;99.90;;;;;;5242180;28;20060;-59
2022/07/08 00:44:21;;;;;;;3.25;2.95;;;16.30;99.90;;;;;;5262127;28;20098;-59
2022/07/08 00:46:55;;;;;;;3.47;2.72;;;16.40;99.90;;;;;;5262385;28;20039;-59
2022/07/08 00:49:31;;;;;;;3.67;2.80;;;16.30;99.90;;;;;;5245035;28;20027;-58
2022/07/08 00:52:06;;;;;;;4.85;2.60;;;16.30;99.90;;;;;;5262395;28;20024;-58
2022/07/08 00:54:38;;;;;;;3.47;2.70;;;16.30;99.90;;;;;;5279730;28;20043;-58
2022/07/08 00:57:12;;;;;;;3.88;3.00;;;16.30;99.90;;;;;;5278614;28;20077;-58
2022/07/08 00:59:46;;;;;;;3.13;2.85;;;16.30;99.90;;;;;;5279575;28;20024;-58
2022/07/08 01:02:17;;;;;;;4.35;2.92;;;16.30;99.90;;;;;;5262394;28;20034;-58
2022/07/08 01:04:53;;;;;;;2.72;2.22;;;16.30;99.90;;;;;;5247054;28;20066;-58
2022/07/08 01:07:27;;;;;;;2.78;2.55;;;16.30;99.90;;;;;;5252431;28;20030;-60
2022/07/08 01:09:59;;;;;;;5.53;2.90;;;16.30;99.90;;;;;;5261180;28;20042;-59
2022/07/08 01:12:33;;;;;;;3.22;2.92;;;16.30;99.90;;;;;;5279294;28;20027;-59
2022/07/08 01:15:05;;;;;;;;;;;16.30;99.90;;;;;;5278814;28;20031;-59
2022/07/08 01:17:48;;;;;;;3.17;2.53;;;16.30;99.90;;;;;;5278502;28;20089;-59
2022/07/08 01:20:19;;;;;;;3.63;2.67;;;16.30;99.90;;;;;;5260957;28;20205;-59
2022/07/08 01:22:51;;;;;;;3.08;2.70;;;16.20;99.90;;;;;;5261502;28;20012;-59
2022/07/08 01:25:26;;;;;;;4.32;3.33;;;16.20;99.90;;;;;;5278547;28;20043;-58
2022/07/08 01:27:57;;;;;;;5.38;2.83;;;16.20;99.90;;;;;;5280699;28;20027;-58
2022/07/08 01:30:28;;;;;;;3.13;2.63;;;16.20;99.90;;;;;;5280636;28;20027;-58
2022/07/08 01:32:59;;;;;;;4.38;3.10;;;16.20;99.90;;;;;;5280745;28;20016;-59
2022/07/08 01:38:58;;;;;;;4.07;3.60;;;16.30;99.90;;;;;;5280596;28;20034;-58
2022/07/08 01:41:33;;;;;;;3.65;2.58;;;16.30;99.90;;;;;;5277226;28;20220;-58
2022/07/08 01:44:12;;;;;;;3.15;2.60;;;16.30;99.90;;;;;;5280057;28;20028;-60
2022/07/08 01:46:48;;;;;;;4.72;2.95;;;16.30;99.90;;;;;;5279300;28;20061;-60
2022/07/08 01:49:22;;;;;;;3.35;3.03;;;16.30;99.90;;;;;;5279704;28;20201;-58
2022/07/08 01:52:31;;;;;;;4.20;3.80;;;16.30;99.90;;;;;;5260247;28;20020;-59
2022/07/08 01:55:05;;;;;;;3.80;3.38;;;16.30;99.90;;;;;;5278542;28;20264;-58
2022/07/08 01:57:36;;;;;;;4.90;3.75;;;16.20;99.90;;;;;;5262685;28;20034;-60
2022/07/08 02:00:11;;;;;;;4.30;3.47;;;16.20;99.90;;;;;;5279525;28;20331;-58
2022/07/08 02:02:44;;;;;;;;;;;16.30;99.90;;;;;;5262297;28;20024;-58
2022/07/08 02:05:21;;;;;;;5.20;3.78;;;16.30;99.90;;;;;;5261179;28;19911;-58
2022/07/08 02:08:01;;;;;;;4.22;3.28;;;16.30;99.90;;;;;;5262244;28;20028;-60
2022/07/08 02:12:18;;;;;;;3.42;3.13;;;16.30;99.90;;;;;;5261248;28;20039;-60
2022/07/08 02:13:23;;;;;;;4.55;3.58;;;16.30;99.90;;;;;;5264508;28;20032;-59
2022/07/08 02:19:24;;;;;;;5.18;3.88;;;16.30;99.90;;;;;;5278432;28;20028;-58
2022/07/08 02:21:55;;;;;;;3.00;2.70;;;16.30;99.90;;;;;;5244797;28;20042;-59
2022/07/08 02:24:26;;;;;;;3.53;2.83;;;16.30;99.90;;;;;;5282940;28;20031;-59
2022/07/08 02:27:01;;;;;;;4.35;3.33;;;16.30;99.90;;;;;;5282781;28;20028;-59
2022/07/08 02:29:35;;;;;;;;;;;16.30;99.90;;;;;;5282967;28;20016;-59
2022/07/08 02:32:09;;;;;;;3.55;3.25;;;16.30;99.90;;;;;;5265497;28;19906;-59
2022/07/08 02:35:06;;;;;;;4.75;4.03;;;16.30;99.90;;;;;;5265290;28;20020;-59
2022/07/08 02:37:37;;;;;;;3.50;3.20;;;16.20;99.90;;;;;;5249220;28;20034;-59
2022/07/08 02:40:09;;;;;;;4.32;2.97;;;16.20;99.90;;;;;;5265581;28;20209;-59
2022/07/08 02:42:43;;;;;;;4.82;4.00;;;16.10;99.90;;;;;;5264447;28;20204;-59
2022/07/08 02:45:14;;;;;;;3.95;3.25;;;16.10;99.90;;;;;;5282502;28;20086;-58
2022/07/08 02:47:48;;;;;;;6.13;3.92;;;16.00;99.90;;;;;;5248940;28;20042;-58
2022/07/08 02:50:22;;;;;;;4.28;3.55;;;16.00;99.90;;;;;;5263996;28;20024;-58
2022/07/08 02:52:56;;;;;;;6.55;3.72;;;16.00;99.90;;;;;;5278875;28;20030;-58
2022/07/08 02:55:27;;;;;;;5.63;3.88;;;16.00;99.90;;;;;;5243065;28;20066;-58
2022/07/08 02:57:59;;;;;;;5.88;4.50;;;15.90;99.90;;;;;;5262230;28;20020;-59
2022/07/08 03:00:30;;;;;;;4.82;4.03;;;15.90;99.90;;;;;;5258567;28;20318;-61
2022/07/08 03:03:07;;;;;;;4.50;4.00;;;15.90;99.90;;;;;;5240883;28;20028;-58
2022/07/08 03:05:50;;;;;;;5.18;4.20;;;15.90;99.90;;;;;;5250668;28;20055;-59
2022/07/08 03:08:22;;;;;;;5.03;3.83;;;15.90;99.90;;;;;;5262036;28;20029;-59
2022/07/08 03:10:58;;;;;;;5.35;3.90;;;15.90;99.90;;;;;;5244820;28;20036;-60
2022/07/08 03:13:37;;;;;;;4.72;3.53;;;15.80;99.90;;;;;;5243722;28;20043;-58
2022/07/08 03:16:11;;;;;;;5.35;3.13;;;15.90;99.90;;;;;;5261417;28;20024;-59
2022/07/08 03:18:42;;;;;;;8.10;3.92;;;15.90;99.90;;;;;;5227414;28;20032;-58
2022/07/08 03:21:16;;;;;;;4.18;3.75;;;15.80;99.90;;;;;;5242623;28;20028;-58
2022/07/08 03:23:49;;;;;;;4.80;3.13;;;15.80;99.90;;;;;;5260886;28;20027;-58
2022/07/08 03:26:23;;;;;;;5.35;3.90;;;15.80;99.90;;;;;;5226845;28;20036;-58
2022/07/08 03:28:54;;;;;;;4.28;3.88;;;15.80;99.90;;;;;;5244021;28;20034;-58
2022/07/08 03:31:25;;;;;;;5.15;4.35;;;15.80;99.90;;;;;;5242859;28;20038;-58
2022/07/08 03:33:56;;;;;;;5.10;4.40;;;15.80;99.90;;;;;;5260467;28;20035;-58
2022/07/08 03:36:29;;;;;;;4.60;3.63;;;15.80;99.90;;;;;;5243595;28;20032;-58
2022/07/08 03:39:00;;;;;;;4.75;3.88;;;15.80;99.90;;;;;;5261260;28;20042;-58
2022/07/08 03:41:34;;;;;;;4.20;3.42;;;15.80;99.90;;;;;;5226434;28;20364;-58
2022/07/08 03:44:06;;;;;;;2.97;2.63;;;15.90;99.90;;;;;;5260974;28;20032;-58
2022/07/08 03:46:43;;;;;;;3.80;2.80;;;16.00;99.90;;;;;;5260885;28;20028;-58
2022/07/08 03:49:16;;;;;;;3.42;3.13;;;16.00;99.90;;;;;;5242790;28;20039;-60
2022/07/08 03:51:48;;;;;;;3.25;2.55;;;16.10;99.90;;;;;;5242841;28;20046;-58
2022/07/08 03:54:22;;;;;;;4.55;3.30;;;16.10;99.90;;;;;;5226233;28;20032;-58
2022/07/08 03:56:53;;;;;;;2.72;2.47;;;16.10;99.90;;;;;;5260441;28;20178;-58
2022/07/08 03:59:27;;;;;;;4.07;3.03;;;16.10;99.90;;;;;;5260372;28;20038;-60
2022/07/08 04:02:00;;;;;;;3.30;2.97;;;16.10;99.90;;;;;;5227617;28;20035;-60
2022/07/08 04:04:37;;;;;;;3.72;2.75;;;16.10;99.90;;;;;;5231112;28;20052;-58
2022/07/08 04:07:13;;;;;;;5.78;2.72;;;16.10;99.90;;;;;;5242317;28;20032;-60
2022/07/08 04:09:46;;;;;;;2.92;2.45;;;16.20;99.90;;;;;;5259538;28;20352;-58
2022/07/08 04:12:17;;;;;;;2.60;2.20;;;16.30;99.90;;;;;;5259432;28;20024;-60
2022/07/08 04:14:49;;;;;;;2.28;2.05;;;16.40;99.90;;;;;;5261013;28;20032;-59
2022/07/08 04:17:25;;;;;;;3.35;2.75;;;16.50;99.90;;;;;;5241571;28;20329;-61
2022/07/08 04:19:56;;;;;;;2.28;2.08;;;16.60;99.90;;;;;;5241118;28;20030;-60
2022/07/08 04:22:33;;;;;;;2.58;2.38;;;16.50;99.90;;;;;;5259983;28;20294;-59
2022/07/08 04:25:06;;;;;;;2.45;2.20;;;16.60;99.90;;;;;;5225517;28;20048;-59
2022/07/08 04:27:41;;;;;;;1.92;1.80;;;16.50;99.90;;;;;;5241171;28;20038;-59
2022/07/08 04:30:12;;;;;;;2.08;1.45;;;16.50;99.90;;;;;;5241809;28;20021;-59
2022/07/08 04:32:53;;;;;;;2.00;1.73;;;16.50;99.90;;;;;;5224166;28;20340;-59
2022/07/08 04:35:24;;;;;;;1.63;1.50;;;16.60;99.90;;;;;;5257796;28;20032;-59
2022/07/08 04:37:58;;;;;;;1.85;1.75;;;16.60;99.90;;;;;;5243000;28;20028;-58
2022/07/08 04:40:34;;;;;;;1.50;1.40;;;16.60;99.90;;;;;;5259213;28;20021;-58
2022/07/08 04:43:11;;;;;;;1.60;1.50;;;16.60;99.90;;;;;;5258460;28;20030;-59
2022/07/08 04:45:42;;;;;;;1.95;1.60;;;16.70;99.90;;;;;;5241608;28;20302;-58
2022/07/08 04:48:18;;;;;;;1.48;1.38;;;16.70;99.90;;;;;;5242613;28;20040;-58
2022/07/08 04:50:49;;;;;;;1.00;1.00;;;16.80;99.90;;;;;;5260041;28;20025;-59
2022/07/08 04:53:21;;;;;;;8.23;1.40;;;16.80;99.90;;;;;;5241605;28;20302;-58
2022/07/08 04:55:52;;;;;;;1.27;0.93;;;16.80;99.90;;;;;;5238068;28;20031;-58
2022/07/08 04:58:28;;;;;;;0.88;0.88;;;16.70;99.90;;;;;;5255335;28;20186;-58
2022/07/08 05:00:59;;;;;;;1.77;0.65;;;16.70;99.90;;;;;;5255026;28;20032;-58
2022/07/08 05:03:30;;;;;;;0.60;0.60;;;16.70;99.90;;;;;;5240619;28;20028;-58
2022/07/08 05:06:01;;;;;;;0.77;0.77;;;16.60;99.90;;;;;;5239544;28;20045;-60
2022/07/08 05:08:33;;;;;;;0.70;0.70;;;16.50;99.90;;;;;;5244597;28;20352;-61
2022/07/08 05:11:07;;;;;;;0.60;0.60;;;16.60;99.90;;;;;;5223445;28;20195;-60
2022/07/08 05:13:41;;;;;;;0.65;0.65;;;16.50;99.90;;;;;;5229458;28;20028;-59
2022/07/08 05:16:12;;;;;;;0.77;0.77;;;16.50;99.90;;;;;;5245631;28;20221;-60
2022/07/08 05:18:46;;;;;;;0.43;0.43;;;16.50;99.90;;;;;;5253343;28;20029;-59
2022/07/08 05:21:19;;;;;;;0.60;0.60;;;16.40;99.90;;;;;;5251520;28;20024;-58
2022/07/08 05:23:50;;;;;;;0.60;0.60;;;16.30;99.90;;;;;;5231134;28;20028;-62
2022/07/08 05:26:24;;;;;;;0.70;0.70;;;16.30;99.90;;;;;;5214837;28;20036;-61
2022/07/08 05:28:58;;;;;;;0.52;0.52;;;16.20;99.90;;;;;;5249846;28;20034;-59
2022/07/08 05:31:35;;;;;;;0.60;0.60;;;16.00;99.90;;;;;;5243634;28;20340;-59
2022/07/08 05:34:08;;;;;;;0.50;0.50;;;16.00;99.90;;;;;;5239212;28;20326;-60
2022/07/08 05:36:39;;;;;;;0.60;0.60;;;15.80;99.90;;;;;;5241886;28;20054;-60
2022/07/08 05:39:13;;;;;;;0.95;0.63;;;15.50;99.90;;;;;;5228890;28;20199;-59
2022/07/08 05:41:44;;;;;;;0.70;0.70;;;15.50;99.90;;;;;;5229065;28;20047;-60
2022/07/08 05:44:18;;;;;;;0.80;0.80;;;15.40;99.90;;;;;;5210569;28;20025;-59
2022/07/08 05:46:49;;;;;;;0.70;0.70;;;15.30;99.90;;;;;;5235886;28;20024;-61
2022/07/08 05:49:25;;;;;;;0.73;0.73;;;15.30;99.90;;;;;;5234361;28;20042;-61
2022/07/08 05:51:59;;;;;;;0.70;0.70;;;15.40;99.90;;;;;;5217653;28;20046;-60
2022/07/08 05:54:33;;;;;;;0.70;0.70;;;15.40;99.90;;;;;;5245932;28;20212;-60
2022/07/08 05:57:04;;;;;;;0.80;0.80;;;15.60;99.90;;;;;;5242632;28;20034;-62
2022/07/08 05:59:35;;;;;;;0.70;0.70;;;15.70;99.90;;;;;;5261220;28;20319;-61
2022/07/08 06:02:07;;;;;;;1.00;1.00;;;15.80;99.90;;;;;;5223497;28;20317;-61
2022/07/08 06:04:40;;;;;;;0.77;0.77;;;16.00;99.90;;;;;;5208840;28;20051;-62
2022/07/08 06:07:12;;;;;;;0.80;0.80;;;16.10;99.90;;;;;;5237785;28;20352;-60
2022/07/08 06:09:45;;;;;;;0.65;0.65;;;16.10;99.90;;;;;;5194140;28;20607;-60
2022/07/08 06:12:19;;;;;;;0.80;0.80;;;16.10;99.90;;;;;;5161786;28;20047;-60
2022/07/08 06:14:52;;;;;;;0.75;0.75;;;16.00;99.90;;;;;;5177542;28;20033;-61
2022/07/08 06:17:26;;;;;;;0.60;0.60;;;16.00;99.90;;;;;;5193861;28;20025;-58
2022/07/08 06:20:01;;;;;;;0.85;0.85;;;16.10;99.90;;;;;;5187937;28;20210;-61
2022/07/08 06:22:33;;;;;;;0.70;0.70;;;16.10;99.90;;;;;;5179206;28;20245;-61
2022/07/08 06:25:10;;;;;;;0.70;0.70;;;16.00;99.90;;;;;;5180627;28;20064;-61
2022/07/08 06:27:43;;;;;;;0.77;0.77;;;16.00;99.90;;;;;;5177740;28;20116;-60
2022/07/08 06:30:17;;;;;;;0.77;0.77;;;15.90;99.90;;;;;;5194879;28;20033;-59
2022/07/08 06:32:48;;;;;;;0.80;0.80;;;15.90;99.90;;;;;;5209629;28;20330;-60
2022/07/08 06:35:24;;;;;;;1.15;1.05;;;15.80;99.90;;;;;;5207790;28;20081;-61
2022/07/08 06:37:59;;;;;;;0.88;0.88;;;15.80;99.90;;;;;;5188628;28;20025;-60
2022/07/08 06:40:32;;;;;;;1.17;1.13;;;15.70;99.90;;;;;;5212578;28;20174;-60
2022/07/08 06:43:03;;;;;;;3.33;1.20;;;15.70;99.90;;;;;;5238637;28;20031;-62
2022/07/08 06:45:35;;;;;;;1.17;1.08;;;15.70;99.90;;;;;;5237422;28;20345;-58
2022/07/08 06:48:09;;;;;;;0.90;0.90;;;15.70;99.90;;;;;;5238767;28;20296;-61
2022/07/08 06:50:43;;;;;;;1.30;1.20;;;15.60;99.90;;;;;;5238613;28;20297;-60
2022/07/08 06:53:14;;;;;;;0.98;0.98;;;15.60;99.90;;;;;;5212540;28;20274;-60
2022/07/08 06:55:45;;;;;;;0.95;0.95;;;15.60;99.90;;;;;;5232176;28;20028;-60
2022/07/08 06:58:16;;;;;;;1.00;1.00;;;15.50;99.90;;;;;;5204910;28;20279;-60
2022/07/08 07:00:51;;;;;;;1.10;1.05;;;15.50;99.90;;;;;;5238016;28;20206;-59
2022/07/08 07:03:22;;;;;;;1.25;1.10;;;15.40;99.90;;;;;;5218804;28;20029;-60
2022/07/08 07:05:55;;;;;;;1.20;1.15;;;15.20;99.90;;;;;;5208737;28;20063;-62
2022/07/08 07:08:29;;;;;;;1.40;1.30;;;14.90;99.90;;;;;;5231854;28;20024;-60
2022/07/08 07:11:00;;;;;;;2.80;2.15;;;14.90;99.90;;;;;;5238874;28;20157;-61
2022/07/08 07:13:34;;;;;;;2.00;1.30;;;14.90;99.90;;;;;;5236809;28;20032;-62
2022/07/08 07:16:10;;;;;;;2.10;1.77;;;15.00;99.90;;;;;;5246696;28;20039;-60
2022/07/08 07:18:43;;;;;;;1.98;1.77;;;15.00;99.90;;;;;;5240858;28;20021;-62
2022/07/08 07:21:20;;;;;;;4.25;1.67;;;15.00;99.90;;;;;;5236144;28;20119;-60
2022/07/08 07:23:53;;;;;;;2.20;1.90;;;15.00;99.90;;;;;;5212897;28;20028;-60
2022/07/08 07:26:24;;;;;;;3.30;2.00;;;15.00;99.90;;;;;;5220171;28;20600;-60
2022/07/08 07:28:55;;;;;;;1.85;1.75;;;15.00;99.90;;;;;;5240886;28;20024;-60
2022/07/08 07:31:27;;;;;;;4.55;2.22;;;14.90;99.90;;;;;;5239549;28;20032;-60
2022/07/08 07:33:58;;;;;;;2.30;1.77;;;15.10;99.90;;;;;;5231610;28;20016;-61
2022/07/08 07:36:35;;;;;;;2.15;1.92;;;15.20;99.90;;;;;;5238643;28;20024;-61
2022/07/08 07:39:09;;;;;;;2.15;1.85;;;15.30;99.90;;;;;;5220480;28;20024;-60
2022/07/08 07:41:46;;;;;;;2.10;1.83;;;15.30;99.90;;;;;;5238909;28;20017;-59
2022/07/08 07:44:17;;;;;;;2.78;1.95;;;15.40;99.90;;;;;;5241351;28;20248;-61
2022/07/08 07:46:48;;;;;;;2.97;1.92;;;15.30;99.90;;;;;;5236781;28;20039;-61
2022/07/08 07:49:22;;;;;;;3.97;2.30;;;15.40;99.90;;;;;;5237144;28;20278;-60
2022/07/08 07:51:55;;;;;;;2.63;2.42;;;15.50;99.90;;;;;;5207665;28;20044;-61
2022/07/08 07:54:27;;;;;;;2.38;1.67;;;15.50;99.90;;;;;;5233030;28;20038;-61
2022/07/08 07:56:58;;;;;;;4.82;2.08;;;15.70;99.90;;;;;;5237895;28;20201;-60
2022/07/08 07:59:32;;;;;;;1.98;1.88;;;15.90;99.90;;;;;;5245859;28;20038;-61
2022/07/08 08:02:03;;;;;;;5.03;1.65;;;16.10;99.90;;;;;;5245097;28;20013;-61
2022/07/08 08:04:34;;;;;;;2.05;1.75;;;16.00;99.90;;;;;;5207300;28;20044;-61
2022/07/08 08:07:07;;;;;;;2.33;1.92;;;16.40;99.90;;;;;;5248668;28;20031;-61
2022/07/08 08:09:38;;;;;;;2.70;1.67;;;16.90;99.90;;;;;;5232019;28;20314;-61
2022/07/08 08:12:09;;;;;;;1.65;1.55;;;17.00;99.90;;;;;;5237263;28;20322;-60
2022/07/08 08:14:43;;;;;;;1.60;1.45;;;16.90;99.90;;;;;;5236307;28;20356;-59
2022/07/08 08:17:14;;;;;;;2.35;2.00;;;16.50;99.90;;;;;;5237216;28;20021;-61
2022/07/08 08:19:45;;;;;;;1.83;1.50;;;16.40;99.90;;;;;;5237499;28;20432;-61
2022/07/08 08:22:16;;;;;;;2.22;1.50;;;16.60;99.90;;;;;;5234783;28;20028;-61
2022/07/08 08:24:48;;;;;;;2.60;1.70;;;16.60;99.90;;;;;;5216264;28;20032;-61
2022/07/08 08:27:19;;;;;;;1.73;1.63;;;16.60;99.90;;;;;;5217072;28;20336;-60
2022/07/08 08:29:51;;;;;;;1.58;1.48;;;16.80;99.90;;;;;;5186920;28;20024;-60
2022/07/08 08:32:24;;;;;;;1.45;1.35;;;17.10;99.90;;;;;;5237483;28;20016;-62
2022/07/08 08:34:55;;;;;;;1.90;1.70;;;17.00;99.90;;;;;;5218800;28;20030;-60
2022/07/08 08:37:27;;;;;;;2.30;2.10;;;17.10;99.90;;;;;;5236557;28;20269;-61
2022/07/08 08:40:12;;;;;;;1.38;1.27;;;17.10;99.90;;;;;;5201720;28;20084;-61
2022/07/08 08:42:45;;;;;;;1.50;1.40;;;17.10;99.90;;;;;;5217900;28;20036;-61
2022/07/08 08:45:21;;;;;;;2.30;1.67;;;17.00;99.90;;;;;;5236802;28;20025;-61
2022/07/08 08:48:01;;;;;;;1.52;1.42;;;17.20;99.90;;;;;;5218839;28;20272;-64
2022/07/08 08:50:53;;;;;;;1.73;1.63;;;17.10;99.90;;;;;;5202431;28;20034;-60
2022/07/08 08:53:37;;;;;;;2.25;1.40;;;16.60;99.90;;;;;;5209993;28;20024;-60
2022/07/08 08:56:23;;;;;;;1.70;1.60;;;16.90;99.90;;;;;;5197967;28;20485;-61
2022/07/08 08:59:01;;;;;;;1.42;1.33;;;17.00;99.90;;;;;;5230659;28;20042;-60
2022/07/08 09:01:32;;;;;;;1.73;1.58;;;17.00;99.90;;;;;;5202822;28;20348;-61
2022/07/08 09:04:10;;;;;;;2.17;1.27;;;17.10;99.90;;;;;;5236691;28;20382;-61
2022/07/08 09:06:41;;;;;;;1.70;1.60;;;17.10;99.90;;;;;;5190772;28;20452;-63
2022/07/08 09:09:12;;;;;;;1.65;1.55;;;17.10;99.90;;;;;;5242031;28;20012;-62
2022/07/08 09:11:45;;;;;;;1.95;1.75;;;16.90;99.90;;;;;;5238659;28;20016;-59
2022/07/08 09:14:20;;;;;;;2.78;2.22;;;16.90;99.90;;;;;;5257087;28;20016;-62
2022/07/08 09:17:17;;;;;;;2.15;1.98;;;16.60;99.90;;;;;;5254619;28;20016;-61
2022/07/08 09:19:50;;;;;;;2.53;2.10;;;16.70;99.90;;;;;;5239017;28;20047;-61
2022/07/08 09:22:23;;;;;;;1.48;1.30;;;17.00;99.90;;;;;;5237057;28;20372;-60
2022/07/08 09:24:59;;;;;;;3.60;1.60;;;16.80;99.90;;;;;;5196844;28;20025;-61
2022/07/08 09:27:35;;;;;;;1.42;1.33;;;16.90;99.90;;;;;;5196401;28;20047;-60
2022/07/08 09:30:07;;;;;;;4.43;2.03;;;17.30;99.90;;;;;;5217398;28;20386;-61
2022/07/08 09:32:55;;;;;;;2.70;1.83;;;17.00;99.90;;;;;;5236048;28;20360;-59
2022/07/08 09:35:38;;;;;;;2.13;1.83;;;16.90;99.90;;;;;;5236753;28;20027;-60
2022/07/08 09:38:12;;;;;;;2.40;1.77;;;16.90;99.90;;;;;;5201187;28;20038;-61
2022/07/08 09:40:57;;;;;;;2.25;1.70;;;16.90;99.90;;;;;;5235537;28;20333;-59
2022/07/08 09:43:34;;;;;;;2.00;1.80;;;17.00;99.90;;;;;;5236139;28;20325;-62
2022/07/08 09:46:09;;;;;;;3.22;2.17;;;17.00;99.90;;;;;;5235037;28;20034;-60
2022/07/08 09:48:41;;;;;;;2.42;1.85;;;16.80;99.90;;;;;;5234848;28;20028;-59
2022/07/08 09:51:15;;;;;;;3.30;2.17;;;16.60;99.90;;;;;;5235287;28;20030;-60
2022/07/08 09:53:48;;;;;;;3.38;2.17;;;16.50;99.90;;;;;;5225893;28;20028;-59
2022/07/08 09:56:28;;;;;;;3.38;1.88;;;16.60;99.90;;;;;;5227957;28;20016;-60
2022/07/08 09:58:59;;;;;;;2.47;2.13;;;16.30;99.90;;;;;;5215675;28;20028;-59
2022/07/08 10:01:31;;;;;;;4.72;1.80;;;16.30;99.90;;;;;;5221701;28;20016;-59
2022/07/08 10:04:06;;;;;;;2.55;1.90;;;16.30;99.90;;;;;;5201252;28;20033;-59
2022/07/08 10:06:37;;;;;;;;;;;16.10;99.90;;;;;;5210095;28;20045;-61
2022/07/08 10:09:08;;;;;;;2.60;2.40;;;16.10;99.90;;;;;;5217117;28;19905;-60
2022/07/08 10:11:41;;;;;;;2.85;2.13;;;16.10;99.90;;;;;;5235492;28;20028;-58
2022/07/08 10:14:12;;;;;;;2.20;2.00;;;16.30;99.90;;;;;;5233577;28;20218;-61
2022/07/08 10:16:59;;;;;;;3.33;2.15;;;16.00;99.90;;;;;;5217343;28;20029;-61
2022/07/08 10:19:38;;;;;;;3.13;2.35;;;15.90;99.90;;;;;;5217692;28;20039;-60
2022/07/08 10:22:12;;;;;;;4.88;2.45;;;15.80;99.90;;;;;;5216850;28;20013;-60
2022/07/08 10:24:46;;;;;;;2.63;2.08;;;15.90;99.90;;;;;;5215399;28;20036;-62
2022/07/08 10:27:24;;;;;;;2.10;1.90;;;15.90;99.90;;;;;;5233314;28;20029;-59
2022/07/08 10:30:18;;;;;;;2.85;2.30;;;15.90;99.90;;;;;;5216873;28;20027;-61
2022/07/08 10:32:53;;;;;;;2.90;2.50;;;16.10;99.90;;;;;;5235551;28;20017;-61
2022/07/08 10:35:24;;;;;;;4.47;2.22;;;16.00;99.90;;;;;;5217254;28;20202;-59
2022/07/08 10:38:01;;;;;;;5.55;2.60;;;16.00;99.90;;;;;;5216141;28;20042;-60
2022/07/08 10:40:41;;;;;;;2.45;2.35;;;16.00;99.90;;;;;;5235014;28;20257;-61
2022/07/08 10:43:18;;;;;;;4.80;2.30;;;16.00;99.90;;;;;;5237418;28;20027;-61
2022/07/08 10:46:17;;;;;;;2.28;2.00;;;15.90;99.90;;;;;;5239059;28;20295;-60
2022/07/08 10:49:17;;;;;;;2.03;1.80;;;16.10;99.90;;;;;;5220760;28;20030;-61
2022/07/08 10:51:48;;;;;;;5.43;2.35;;;16.20;99.90;;;;;;5198509;28;20033;-59
2022/07/08 10:54:28;;;;;;;4.05;2.38;;;16.30;99.90;;;;;;5234987;28;20028;-60
2022/07/08 10:57:01;;;;;;;2.95;2.10;;;16.40;99.90;;;;;;5220714;28;20247;-59
2022/07/08 10:59:39;;;;;;;2.20;2.00;;;16.70;99.90;;;;;;5238241;28;20020;-62
2022/07/08 11:02:14;;;;;;;4.43;2.58;;;16.60;99.90;;;;;;5222238;28;20234;-59
2022/07/08 11:04:50;;;;;;;2.42;2.00;;;16.80;99.90;;;;;;5225229;28;20054;-61
2022/07/08 11:07:26;;;;;;;2.47;1.67;;;17.00;99.90;;;;;;5240741;28;20183;-58
2022/07/08 11:10:08;;;;;;;2.22;1.73;;;16.80;99.90;;;;;;5238735;28;20028;-60
2022/07/08 11:12:47;;;;;;;2.17;1.98;;;16.90;99.90;;;;;;5226934;28;20330;-61
2022/07/08 11:15:18;;;;;;;2.17;1.98;;;16.80;99.90;;;;;;5217948;28;20031;-61
2022/07/08 11:17:50;;;;;;;2.20;2.00;;;16.70;99.90;;;;;;5222634;28;20020;-60
2022/07/08 11:20:21;;;;;;;2.08;1.88;;;16.80;99.90;;;;;;5256798;28;20024;-61
2022/07/08 11:22:55;;;;;;;2.80;1.77;;;16.80;99.90;;;;;;5219598;28;20022;-61
2022/07/08 11:25:32;;;;;;;2.08;1.83;;;16.70;99.90;;;;;;5209805;28;20032;-59
2022/07/08 11:28:18;;;;;;;4.50;1.90;;;16.60;99.90;;;;;;5220648;28;20209;-59
2022/07/08 11:30:49;;;;;;;2.25;2.05;;;16.70;99.90;;;;;;5236769;28;20027;-60
2022/07/08 11:33:38;;;;;;;1.52;1.42;;;16.80;99.90;;;;;;5215153;28;20032;-60
2022/07/08 11:36:17;;;;;;;2.13;1.92;;;16.80;99.90;;;;;;5204694;28;20033;-60
2022/07/08 11:38:51;;;;;;;2.70;1.73;;;16.90;99.90;;;;;;5203082;28;20024;-61
2022/07/08 11:41:22;;;;;;;1.92;1.60;;;16.90;99.90;;;;;;5237592;28;20016;-62
2022/07/08 11:43:56;;;;;;;2.10;1.90;;;17.00;99.90;;;;;;5237854;28;20024;-61
2022/07/08 11:46:29;;;;;;;2.15;1.58;;;17.20;99.90;;;;;;5219811;28;20027;-60
2022/07/08 11:49:07;;;;;;;1.90;1.80;;;17.30;99.90;;;;;;5220435;28;20379;-60
2022/07/08 11:51:38;;;;;;;1.90;1.80;;;17.10;99.90;;;;;;5236612;28;20024;-59
2022/07/08 11:54:09;;;;;;;3.70;2.20;;;17.40;99.90;;;;;;5233212;28;20032;-58
2022/07/08 11:56:43;;;;;;;3.90;1.60;;;17.40;99.90;;;;;;5239860;28;20021;-60
2022/07/08 11:59:22;;;;;;;3.40;2.10;;;17.40;99.90;;;;;;5219476;28;20055;-60
2022/07/08 12:02:06;;;;;;;4.30;1.40;;;17.80;99.90;;;;;;5233036;28;20424;-61
2022/07/08 12:04:38;;;;;;;1.63;1.50;;;18.00;99.90;;;;;;5220638;28;20044;-61
2022/07/08 12:07:42;;;;;;;1.95;1.80;;;17.80;99.90;;;;;;5228138;28;20325;-59
2022/07/08 12:10:23;;;;;;;2.17;1.75;;;18.10;99.90;;;;;;5177434;28;20246;-61
2022/07/08 12:12:59;;;;;;;2.63;1.90;;;18.00;99.90;;;;;;5166713;28;20363;-62
2022/07/08 12:15:35;;;;;;;1.67;1.58;;;17.70;99.90;;;;;;5182624;28;20025;-60
2022/07/08 12:18:09;;;;;;;2.22;1.98;;;17.80;99.90;;;;;;5180316;28;20029;-61
2022/07/08 12:20:42;;;;;;;1.80;1.63;;;17.90;99.90;;;;;;5183979;28;20029;-58
2022/07/08 12:23:16;;;;;;;1.50;1.40;;;18.60;99.90;;;;;;5177049;28;20029;-60
2022/07/08 12:25:50;;;;;;;2.22;1.50;;;18.40;99.90;;;;;;5164573;28;20320;-58
2022/07/08 12:28:23;;;;;;;1.38;1.27;;;17.70;99.90;;;;;;5180710;28;20037;-60
2022/07/08 12:30:55;;;;;;;2.85;1.63;;;18.00;99.90;;;;;;5182210;28;20026;-59
2022/07/08 12:33:27;;;;;;;1.63;1.50;;;17.80;99.90;;;;;;5166130;28;20034;-61
2022/07/08 12:35:58;;;;;;;1.50;1.40;;;17.80;99.90;;;;;;5184140;28;20022;-59
2022/07/08 12:38:32;;;;;;;1.40;1.30;;;17.90;99.90;;;;;;5179418;28;20341;-59
2022/07/08 12:41:18;;;;;;;3.47;1.83;;;18.10;99.90;;;;;;5145983;28;20038;-58
2022/07/08 12:43:49;;;;;;;4.35;1.73;;;18.00;99.90;;;;;;5171724;28;20408;-61
2022/07/08 12:46:28;;;;;;;1.77;1.38;;;17.70;99.90;;;;;;5210289;28;20345;-59
2022/07/08 12:49:04;;;;;;;1.77;1.50;;;17.40;99.90;;;;;;5230665;28;20241;-59
2022/07/08 12:51:38;;;;;;;2.55;2.13;;;17.30;99.90;;;;;;5244262;28;20054;-61
2022/07/08 12:54:09;;;;;;;4.45;1.73;;;17.10;99.90;;;;;;5231556;28;20024;-59
2022/07/08 12:56:46;;;;;;;5.43;1.40;;;17.10;99.90;;;;;;5246011;28;20032;-60
2022/07/08 12:59:19;;;;;;;2.17;1.20;;;17.30;99.90;;;;;;5228475;28;20035;-59
2022/07/08 13:01:51;;;;;;;1.00;1.00;;;17.30;99.90;;;;;;5253039;28;20095;-59
2022/07/08 13:04:23;;;;;;;5.38;1.48;;;17.20;99.90;;;;;;5243507;28;20265;-61
2022/07/08 13:07:01;;;;;;;2.00;1.15;;;17.00;99.90;;;;;;5252363;28;20478;-59
2022/07/08 13:09:35;;;;;;;2.50;1.20;;;17.20;99.90;;;;;;5212224;28;20044;-59
2022/07/08 13:12:06;;;;;;;2.10;1.25;;;17.40;99.90;;;;;;5247058;28;20012;-59
2022/07/08 13:14:38;;;;;;;3.55;1.50;;;18.10;99.90;;;;;;5245039;28;20024;-62
2022/07/08 13:17:09;;;;;;;1.80;1.20;;;18.40;99.90;;;;;;5239070;28;20028;-59
2022/07/08 13:19:40;;;;;;;1.95;1.48;;;18.50;99.90;;;;;;5222630;28;20028;-59
2022/07/08 13:22:14;;;;;;;2.25;1.75;;;18.10;99.90;;;;;;5220662;28;20215;-60
2022/07/08 13:24:46;;;;;;;1.33;1.10;;;19.30;99.90;;;;;;5241718;28;20033;-60
2022/07/08 13:27:20;;;;;;;2.28;1.20;;;20.80;99.90;;;;;;5240229;28;20031;-59
2022/07/08 13:29:56;;;;;;;1.40;1.30;;;21.60;99.90;;;;;;5242719;28;20040;-58
2022/07/08 13:32:27;;;;;;;2.30;0.70;;;20.80;99.90;;;;;;5241985;28;20032;-59
2022/07/08 13:38:28;;;;;;;1.95;1.50;;;20.80;99.90;;;;;;5222685;28;20025;-60